sensor_id;sensor_type;location;lat;lon;timestamp;pressure;altitude;pressure_sealevel;temperature;humidity
51333;BME280;37417;48.118;11.734;2023-07-29T00:01:47;95304.72;;;17.10;100.00
51333;BME280;37417;48.118;11.734;2023-07-29T00:04:34;95315.25;;;17.10;100.00
51333;BME280;37417;48.118;11.734;2023-07-29T00:07:20;95305.41;;;17.05;100.00
51333;BME280;37417;48.118;11.734;2023-07-29T00:10:06;95305.25;;;17.12;100.00
51333;BME280;37417;48.118;11.734;2023-07-29T00:12:52;95295.63;;;17.01;100.00
51333;BME280;37417;48.118;11.734;2023-07-29T00:15:38;95305.66;;;17.04;100.00
51333;BME280;37417;48.118;11.734;2023-07-29T00:18:23;95307.03;;;16.90;100.00
51333;BME280;37417;48.118;11.734;2023-07-29T00:21:09;95297.34;;;16.78;100.00
51333;BME280;37417;48.118;11.734;2023-07-29T00:23:55;95309.75;;;16.66;100.00
51333;BME280;37417;48.118;11.734;2023-07-29T00:26:42;95308.38;;;16.64;100.00
51333;BME280;37417;48.118;11.734;2023-07-29T00:29:28;95320.66;;;16.58;100.00
51333;BME280;37417;48.118;11.734;2023-07-29T00:32:14;95326.97;;;16.57;100.00
51333;BME280;37417;48.118;11.734;2023-07-29T00:34:59;95310.13;;;16.58;100.00
51333;BME280;37417;48.118;11.734;2023-07-29T00:37:46;95317.94;;;16.53;100.00
51333;BME280;37417;48.118;11.734;2023-07-29T00:40:35;95309.63;;;16.61;100.00
51333;BME280;37417;48.118;11.734;2023-07-29T00:43:21;95316.03;;;16.65;100.00
51333;BME280;37417;48.118;11.734;2023-07-29T00:46:08;95303.91;;;16.64;100.00
51333;BME280;37417;48.118;11.734;2023-07-29T00:48:55;95307.34;;;16.65;100.00
51333;BME280;37417;48.118;11.734;2023-07-29T00:51:41;95310.47;;;16.62;100.00
51333;BME280;37417;48.118;11.734;2023-07-29T00:54:27;95302.88;;;16.65;100.00
51333;BME280;37417;48.118;11.734;2023-07-29T00:57:13;95307.31;;;16.76;100.00
51333;BME280;37417;48.118;11.734;2023-07-29T01:00:01;95303.25;;;16.86;100.00
51333;BME280;37417;48.118;11.734;2023-07-29T01:02:47;95293.94;;;16.95;100.00
51333;BME280;37417;48.118;11.734;2023-07-29T01:05:43;95291.44;;;17.05;100.00
51333;BME280;37417;48.118;11.734;2023-07-29T01:08:40;95282.66;;;16.99;100.00
51333;BME280;37417;48.118;11.734;2023-07-29T01:11:47;95287.78;;;17.06;100.00
51333;BME280;37417;48.118;11.734;2023-07-29T01:14:35;95281.81;;;16.94;100.00
51333;BME280;37417;48.118;11.734;2023-07-29T01:17:25;95283.41;;;16.95;100.00
51333;BME280;37417;48.118;11.734;2023-07-29T01:20:15;95292.41;;;16.99;100.00
51333;BME280;37417;48.118;11.734;2023-07-29T01:23:01;95286.59;;;16.97;100.00
51333;BME280;37417;48.118;11.734;2023-07-29T01:25:47;95279.47;;;16.97;100.00
51333;BME280;37417;48.118;11.734;2023-07-29T01:28:32;95269.81;;;17.03;100.00
51333;BME280;37417;48.118;11.734;2023-07-29T01:31:29;95267.19;;;17.03;100.00
51333;BME280;37417;48.118;11.734;2023-07-29T01:34:22;95261.53;;;16.94;100.00
51333;BME280;37417;48.118;11.734;2023-07-29T01:37:15;95260.72;;;16.94;100.00
51333;BME280;37417;48.118;11.734;2023-07-29T01:40:02;95266.38;;;16.86;100.00
51333;BME280;37417;48.118;11.734;2023-07-29T01:42:49;95266.28;;;16.81;100.00
51333;BME280;37417;48.118;11.734;2023-07-29T01:45:36;95263.34;;;16.77;100.00
51333;BME280;37417;48.118;11.734;2023-07-29T01:48:24;95254.31;;;16.73;100.00
51333;BME280;37417;48.118;11.734;2023-07-29T01:51:11;95265.09;;;16.71;100.00
51333;BME280;37417;48.118;11.734;2023-07-29T01:53:57;95264.72;;;16.68;100.00
51333;BME280;37417;48.118;11.734;2023-07-29T01:56:45;95264.72;;;16.68;100.00
51333;BME280;37417;48.118;11.734;2023-07-29T01:59:31;95271.66;;;16.57;100.00
51333;BME280;37417;48.118;11.734;2023-07-29T02:02:16;95267.44;;;16.56;100.00
51333;BME280;37417;48.118;11.734;2023-07-29T02:05:02;95264.81;;;16.56;100.00
51333;BME280;37417;48.118;11.734;2023-07-29T02:07:48;95259.34;;;16.46;100.00
51333;BME280;37417;48.118;11.734;2023-07-29T02:10:33;95264.22;;;16.54;100.00
51333;BME280;37417;48.118;11.734;2023-07-29T02:13:19;95263.56;;;16.47;100.00
51333;BME280;37417;48.118;11.734;2023-07-29T02:16:05;95260.28;;;16.40;100.00
51333;BME280;37417;48.118;11.734;2023-07-29T02:18:50;95263.63;;;16.35;100.00
51333;BME280;37417;48.118;11.734;2023-07-29T02:21:36;95253.03;;;16.47;100.00
51333;BME280;37417;48.118;11.734;2023-07-29T02:24:22;95257.69;;;16.28;100.00
51333;BME280;37417;48.118;11.734;2023-07-29T02:27:07;95259.44;;;16.22;100.00
51333;BME280;37417;48.118;11.734;2023-07-29T02:29:53;95262.22;;;16.16;100.00
51333;BME280;37417;48.118;11.734;2023-07-29T02:32:39;95273.31;;;16.18;100.00
51333;BME280;37417;48.118;11.734;2023-07-29T02:35:25;95259.81;;;16.14;100.00
51333;BME280;37417;48.118;11.734;2023-07-29T02:38:10;95272.31;;;16.07;100.00
51333;BME280;37417;48.118;11.734;2023-07-29T02:40:56;95280.31;;;16.12;100.00
51333;BME280;37417;48.118;11.734;2023-07-29T02:43:43;95275.28;;;16.11;100.00
51333;BME280;37417;48.118;11.734;2023-07-29T02:46:28;95277.19;;;16.15;100.00
51333;BME280;37417;48.118;11.734;2023-07-29T02:49:14;95275.47;;;16.21;100.00
51333;BME280;37417;48.118;11.734;2023-07-29T02:52:00;95276.88;;;16.12;100.00
51333;BME280;37417;48.118;11.734;2023-07-29T02:54:45;95284.19;;;16.10;100.00
51333;BME280;37417;48.118;11.734;2023-07-29T02:57:31;95288.59;;;16.04;100.00
51333;BME280;37417;48.118;11.734;2023-07-29T03:00:17;95278.25;;;16.03;100.00
51333;BME280;37417;48.118;11.734;2023-07-29T03:03:02;95281.28;;;15.94;100.00
51333;BME280;37417;48.118;11.734;2023-07-29T03:05:48;95283.00;;;15.89;100.00
51333;BME280;37417;48.118;11.734;2023-07-29T03:08:35;95272.16;;;15.85;100.00
51333;BME280;37417;48.118;11.734;2023-07-29T03:11:20;95277.63;;;15.84;100.00
51333;BME280;37417;48.118;11.734;2023-07-29T03:14:06;95282.56;;;15.80;100.00
51333;BME280;37417;48.118;11.734;2023-07-29T03:16:52;95276.41;;;15.75;100.00
51333;BME280;37417;48.118;11.734;2023-07-29T03:19:37;95275.59;;;15.74;100.00
51333;BME280;37417;48.118;11.734;2023-07-29T03:22:23;95272.41;;;15.72;100.00
51333;BME280;37417;48.118;11.734;2023-07-29T03:25:09;95277.63;;;15.84;100.00
51333;BME280;37417;48.118;11.734;2023-07-29T03:27:55;95277.28;;;15.92;100.00
51333;BME280;37417;48.118;11.734;2023-07-29T03:30:40;95263.47;;;15.85;100.00
51333;BME280;37417;48.118;11.734;2023-07-29T03:33:26;95272.94;;;15.86;100.00
51333;BME280;37417;48.118;11.734;2023-07-29T03:36:11;95286.22;;;15.91;100.00
51333;BME280;37417;48.118;11.734;2023-07-29T03:38:57;95284.59;;;15.90;100.00
51333;BME280;37417;48.118;11.734;2023-07-29T03:41:43;95263.53;;;16.02;100.00
51333;BME280;37417;48.118;11.734;2023-07-29T03:44:29;95252.09;;;15.96;100.00
51333;BME280;37417;48.118;11.734;2023-07-29T03:47:16;95267.75;;;16.03;100.00
51333;BME280;37417;48.118;11.734;2023-07-29T03:50:02;95263.19;;;15.98;100.00
51333;BME280;37417;48.118;11.734;2023-07-29T03:52:48;95267.41;;;16.11;100.00
51333;BME280;37417;48.118;11.734;2023-07-29T03:55:33;95265.53;;;16.23;100.00
51333;BME280;37417;48.118;11.734;2023-07-29T03:58:19;95254.94;;;16.35;100.00
51333;BME280;37417;48.118;11.734;2023-07-29T04:01:05;95244.75;;;16.38;100.00
51333;BME280;37417;48.118;11.734;2023-07-29T04:03:50;95246.53;;;16.49;100.00
51333;BME280;37417;48.118;11.734;2023-07-29T04:06:37;95254.22;;;16.39;100.00
51333;BME280;37417;48.118;11.734;2023-07-29T04:09:23;95245.53;;;16.39;100.00
51333;BME280;37417;48.118;11.734;2023-07-29T04:12:09;95245.38;;;16.45;100.00
51333;BME280;37417;48.118;11.734;2023-07-29T04:14:55;95243.88;;;16.49;100.00
51333;BME280;37417;48.118;11.734;2023-07-29T04:17:40;95232.81;;;16.64;100.00
51333;BME280;37417;48.118;11.734;2023-07-29T04:20:26;95227.59;;;16.52;100.00
51333;BME280;37417;48.118;11.734;2023-07-29T04:23:12;95223.72;;;16.55;100.00
51333;BME280;37417;48.118;11.734;2023-07-29T04:25:57;95211.75;;;16.64;100.00
51333;BME280;37417;48.118;11.734;2023-07-29T04:28:43;95200.84;;;16.72;100.00
51333;BME280;37417;48.118;11.734;2023-07-29T04:31:29;95201.88;;;16.71;100.00
51333;BME280;37417;48.118;11.734;2023-07-29T04:34:15;95193.56;;;16.79;100.00
51333;BME280;37417;48.118;11.734;2023-07-29T04:37:00;95189.34;;;16.78;100.00
51333;BME280;37417;48.118;11.734;2023-07-29T04:39:46;95193.03;;;16.77;100.00
51333;BME280;37417;48.118;11.734;2023-07-29T04:42:32;95190.06;;;16.91;100.00
51333;BME280;37417;48.118;11.734;2023-07-29T04:45:17;95185.34;;;16.93;100.00
51333;BME280;37417;48.118;11.734;2023-07-29T04:48:03;95192.06;;;17.00;100.00
51333;BME280;37417;48.118;11.734;2023-07-29T04:50:49;95191.47;;;17.15;100.00
51333;BME280;37417;48.118;11.734;2023-07-29T04:53:35;95186.19;;;17.15;100.00
51333;BME280;37417;48.118;11.734;2023-07-29T04:56:21;95182.84;;;17.20;100.00
51333;BME280;37417;48.118;11.734;2023-07-29T04:59:07;95189.47;;;17.22;100.00
51333;BME280;37417;48.118;11.734;2023-07-29T05:01:53;95188.00;;;17.31;100.00
51333;BME280;37417;48.118;11.734;2023-07-29T05:04:39;95191.56;;;17.42;100.00
51333;BME280;37417;48.118;11.734;2023-07-29T05:07:25;95185.72;;;17.79;100.00
51333;BME280;37417;48.118;11.734;2023-07-29T05:10:10;95156.91;;;18.58;100.00
51333;BME280;37417;48.118;11.734;2023-07-29T05:12:56;95136.16;;;19.62;100.00
51333;BME280;37417;48.118;11.734;2023-07-29T05:15:42;95117.50;;;20.29;100.00
51333;BME280;37417;48.118;11.734;2023-07-29T05:18:28;95105.31;;;20.95;100.00
51333;BME280;37417;48.118;11.734;2023-07-29T05:21:13;95087.47;;;21.26;100.00
51333;BME280;37417;48.118;11.734;2023-07-29T05:23:59;95088.50;;;21.25;100.00
51333;BME280;37417;48.118;11.734;2023-07-29T05:26:45;95094.47;;;20.71;100.00
51333;BME280;37417;48.118;11.734;2023-07-29T05:29:31;95083.81;;;21.01;100.00
51333;BME280;37417;48.118;11.734;2023-07-29T05:32:16;95075.69;;;20.57;100.00
51333;BME280;37417;48.118;11.734;2023-07-29T05:35:02;95076.44;;;20.37;100.00
51333;BME280;37417;48.118;11.734;2023-07-29T05:37:48;95083.03;;;19.94;100.00
51333;BME280;37417;48.118;11.734;2023-07-29T05:40:33;95091.50;;;19.81;100.00
51333;BME280;37417;48.118;11.734;2023-07-29T05:43:19;95090.16;;;19.73;100.00
51333;BME280;37417;48.118;11.734;2023-07-29T05:46:05;95095.44;;;19.83;100.00
51333;BME280;37417;48.118;11.734;2023-07-29T05:48:51;95117.13;;;19.70;100.00
51333;BME280;37417;48.118;11.734;2023-07-29T05:51:36;95121.84;;;19.58;100.00
51333;BME280;37417;48.118;11.734;2023-07-29T05:54:22;95124.56;;;19.73;100.00
51333;BME280;37417;48.118;11.734;2023-07-29T05:57:11;95117.19;;;19.85;100.00
51333;BME280;37417;48.118;11.734;2023-07-29T05:59:58;95113.72;;;19.80;100.00
51333;BME280;37417;48.118;11.734;2023-07-29T06:02:44;95124.34;;;20.00;100.00
51333;BME280;37417;48.118;11.734;2023-07-29T06:05:29;95127.19;;;19.73;100.00
51333;BME280;37417;48.118;11.734;2023-07-29T06:08:15;95135.22;;;19.36;100.00
51333;BME280;37417;48.118;11.734;2023-07-29T06:11:02;95148.09;;;19.17;100.00
51333;BME280;37417;48.118;11.734;2023-07-29T06:13:47;95186.47;;;18.82;100.00
51333;BME280;37417;48.118;11.734;2023-07-29T06:16:33;95233.72;;;18.52;100.00
51333;BME280;37417;48.118;11.734;2023-07-29T06:19:20;95254.53;;;17.77;100.00
51333;BME280;37417;48.118;11.734;2023-07-29T06:22:06;95244.13;;;17.49;100.00
51333;BME280;37417;48.118;11.734;2023-07-29T06:24:52;95268.34;;;17.46;100.00
51333;BME280;37417;48.118;11.734;2023-07-29T06:27:38;95251.34;;;17.37;100.00
51333;BME280;37417;48.118;11.734;2023-07-29T06:30:24;95275.97;;;17.64;100.00
51333;BME280;37417;48.118;11.734;2023-07-29T06:33:09;95263.66;;;17.70;100.00
51333;BME280;37417;48.118;11.734;2023-07-29T06:35:55;95266.72;;;17.78;100.00
51333;BME280;37417;48.118;11.734;2023-07-29T06:38:41;95272.00;;;18.00;100.00
51333;BME280;37417;48.118;11.734;2023-07-29T06:41:27;95277.16;;;18.12;100.00
51333;BME280;37417;48.118;11.734;2023-07-29T06:44:13;95277.50;;;18.21;100.00
51333;BME280;37417;48.118;11.734;2023-07-29T06:46:59;95299.91;;;18.18;100.00
51333;BME280;37417;48.118;11.734;2023-07-29T06:49:45;95293.56;;;18.41;100.00
51333;BME280;37417;48.118;11.734;2023-07-29T06:52:31;95305.59;;;18.76;100.00
51333;BME280;37417;48.118;11.734;2023-07-29T06:55:17;95308.72;;;18.51;100.00
51333;BME280;37417;48.118;11.734;2023-07-29T06:58:03;95335.50;;;18.16;100.00
51333;BME280;37417;48.118;11.734;2023-07-29T07:00:49;95344.47;;;18.14;100.00
51333;BME280;37417;48.118;11.734;2023-07-29T07:03:35;95362.34;;;18.07;100.00
51333;BME280;37417;48.118;11.734;2023-07-29T07:06:22;95342.13;;;17.96;100.00
51333;BME280;37417;48.118;11.734;2023-07-29T07:09:12;95354.88;;;17.82;100.00
51333;BME280;37417;48.118;11.734;2023-07-29T07:11:58;95376.78;;;17.83;100.00
51333;BME280;37417;48.118;11.734;2023-07-29T07:14:44;95375.66;;;17.62;100.00
51333;BME280;37417;48.118;11.734;2023-07-29T07:17:30;95376.78;;;17.49;100.00
51333;BME280;37417;48.118;11.734;2023-07-29T07:20:18;95386.22;;;17.62;100.00
51333;BME280;37417;48.118;11.734;2023-07-29T07:23:04;95380.69;;;17.64;100.00
51333;BME280;37417;48.118;11.734;2023-07-29T07:25:56;95379.25;;;17.56;100.00
51333;BME280;37417;48.118;11.734;2023-07-29T07:28:45;95373.50;;;17.59;100.00
51333;BME280;37417;48.118;11.734;2023-07-29T07:31:33;95384.38;;;17.63;100.00
51333;BME280;37417;48.118;11.734;2023-07-29T07:34:20;95376.94;;;17.59;100.00
51333;BME280;37417;48.118;11.734;2023-07-29T07:37:06;95356.81;;;17.53;100.00
51333;BME280;37417;48.118;11.734;2023-07-29T07:39:52;95367.28;;;17.65;100.00
51333;BME280;37417;48.118;11.734;2023-07-29T07:42:38;95355.97;;;17.70;100.00
51333;BME280;37417;48.118;11.734;2023-07-29T07:45:25;95351.69;;;17.80;100.00
51333;BME280;37417;48.118;11.734;2023-07-29T07:48:11;95342.09;;;17.91;100.00
51333;BME280;37417;48.118;11.734;2023-07-29T07:51:10;95338.88;;;17.89;100.00
51333;BME280;37417;48.118;11.734;2023-07-29T07:53:56;95336.44;;;18.04;100.00
51333;BME280;37417;48.118;11.734;2023-07-29T07:56:42;95322.13;;;18.22;100.00
51333;BME280;37417;48.118;11.734;2023-07-29T07:59:28;95307.41;;;18.26;100.00
51333;BME280;37417;48.118;11.734;2023-07-29T08:02:14;95314.28;;;18.49;100.00
51333;BME280;37417;48.118;11.734;2023-07-29T08:05:00;95312.03;;;18.41;100.00
51333;BME280;37417;48.118;11.734;2023-07-29T08:07:46;95314.31;;;18.54;100.00
51333;BME280;37417;48.118;11.734;2023-07-29T08:10:32;95317.63;;;18.66;100.00
51333;BME280;37417;48.118;11.734;2023-07-29T08:13:18;95315.72;;;18.62;100.00
51333;BME280;37417;48.118;11.734;2023-07-29T08:16:04;95317.69;;;18.72;100.00
51333;BME280;37417;48.118;11.734;2023-07-29T08:18:51;95313.84;;;18.84;100.00
51333;BME280;37417;48.118;11.734;2023-07-29T08:21:39;95308.03;;;18.82;100.00
51333;BME280;37417;48.118;11.734;2023-07-29T08:24:25;95314.63;;;19.12;100.00
51333;BME280;37417;48.118;11.734;2023-07-29T08:27:10;95305.69;;;19.55;100.00
51333;BME280;37417;48.118;11.734;2023-07-29T08:29:56;95296.06;;;19.76;100.00
51333;BME280;37417;48.118;11.734;2023-07-29T08:32:42;95282.34;;;19.84;100.00
51333;BME280;37417;48.118;11.734;2023-07-29T08:35:30;95259.22;;;20.32;100.00
51333;BME280;37417;48.118;11.734;2023-07-29T08:38:16;95243.28;;;20.12;100.00
51333;BME280;37417;48.118;11.734;2023-07-29T08:41:40;95236.25;;;20.53;100.00
51333;BME280;37417;48.118;11.734;2023-07-29T08:44:30;95229.38;;;20.67;100.00
51333;BME280;37417;48.118;11.734;2023-07-29T08:47:19;95224.06;;;20.67;100.00
51333;BME280;37417;48.118;11.734;2023-07-29T08:50:05;95223.72;;;20.28;100.00
51333;BME280;37417;48.118;11.734;2023-07-29T08:52:52;95209.97;;;20.36;100.00
51333;BME280;37417;48.118;11.734;2023-07-29T08:55:41;95195.44;;;20.59;100.00
51333;BME280;37417;48.118;11.734;2023-07-29T08:58:27;95171.31;;;20.96;100.00
51333;BME280;37417;48.118;11.734;2023-07-29T09:01:14;95162.53;;;21.21;100.00
51333;BME280;37417;48.118;11.734;2023-07-29T09:04:00;95143.63;;;21.53;100.00
51333;BME280;37417;48.118;11.734;2023-07-29T09:06:48;95141.03;;;21.98;100.00
51333;BME280;37417;48.118;11.734;2023-07-29T09:09:35;95142.03;;;22.12;100.00
51333;BME280;37417;48.118;11.734;2023-07-29T09:12:24;95142.94;;;22.70;100.00
51333;BME280;37417;48.118;11.734;2023-07-29T09:15:10;95139.16;;;23.35;100.00
51333;BME280;37417;48.118;11.734;2023-07-29T09:17:57;95134.56;;;23.40;100.00
51333;BME280;37417;48.118;11.734;2023-07-29T09:20:52;95141.22;;;23.19;100.00
51333;BME280;37417;48.118;11.734;2023-07-29T09:23:43;95149.22;;;23.38;100.00
51333;BME280;37417;48.118;11.734;2023-07-29T09:26:49;95135.16;;;23.61;100.00
51333;BME280;37417;48.118;11.734;2023-07-29T09:29:36;95143.28;;;24.50;100.00
51333;BME280;37417;48.118;11.734;2023-07-29T09:32:25;95120.88;;;25.58;100.00
51333;BME280;37417;48.118;11.734;2023-07-29T09:35:14;95119.53;;;27.22;97.63
51333;BME280;37417;48.118;11.734;2023-07-29T09:38:01;95121.06;;;27.54;86.92
51333;BME280;37417;48.118;11.734;2023-07-29T09:40:47;95116.16;;;28.66;77.68
51333;BME280;37417;48.118;11.734;2023-07-29T09:43:34;95116.66;;;28.33;77.78
51333;BME280;37417;48.118;11.734;2023-07-29T09:46:23;95120.56;;;29.05;70.42
51333;BME280;37417;48.118;11.734;2023-07-29T09:49:10;95120.28;;;27.54;72.36
51333;BME280;37417;48.118;11.734;2023-07-29T09:51:56;95125.16;;;26.90;83.76
51333;BME280;37417;48.118;11.734;2023-07-29T09:54:44;95116.69;;;26.29;87.02
51333;BME280;37417;48.118;11.734;2023-07-29T09:57:30;95111.91;;;26.40;87.09
51333;BME280;37417;48.118;11.734;2023-07-29T10:00:15;95111.53;;;26.78;77.32
51333;BME280;37417;48.118;11.734;2023-07-29T10:03:01;95101.97;;;26.18;86.49
51333;BME280;37417;48.118;11.734;2023-07-29T10:05:47;95111.69;;;27.35;75.25
51333;BME280;37417;48.118;11.734;2023-07-29T10:08:34;95106.66;;;27.33;75.43
51333;BME280;37417;48.118;11.734;2023-07-29T10:11:26;95105.66;;;25.45;88.74
51333;BME280;37417;48.118;11.734;2023-07-29T10:14:11;95092.72;;;26.02;84.85
51333;BME280;37417;48.118;11.734;2023-07-29T10:16:58;95093.94;;;25.96;85.06
51333;BME280;37417;48.118;11.734;2023-07-29T10:19:46;95091.41;;;26.35;85.62
51333;BME280;37417;48.118;11.734;2023-07-29T10:22:43;95087.28;;;26.29;87.15
51333;BME280;37417;48.118;11.734;2023-07-29T10:25:37;95088.97;;;25.89;86.63
51333;BME280;37417;48.118;11.734;2023-07-29T10:28:26;95082.66;;;26.21;87.98
51333;BME280;37417;48.118;11.734;2023-07-29T10:31:15;95079.19;;;26.20;84.59
51333;BME280;37417;48.118;11.734;2023-07-29T10:34:01;95087.94;;;25.49;88.68
51333;BME280;37417;48.118;11.734;2023-07-29T10:36:48;95074.00;;;25.10;93.31
51333;BME280;37417;48.118;11.734;2023-07-29T10:39:39;95073.19;;;27.13;88.12
51333;BME280;37417;48.118;11.734;2023-07-29T10:42:25;95066.91;;;28.79;67.27
51333;BME280;37417;48.118;11.734;2023-07-29T10:45:18;95058.41;;;28.25;72.12
51333;BME280;37417;48.118;11.734;2023-07-29T10:48:11;95059.38;;;28.29;67.44
51333;BME280;37417;48.118;11.734;2023-07-29T10:54:12;95058.75;;;27.97;69.26
51333;BME280;37417;48.118;11.734;2023-07-29T10:56:59;95058.00;;;27.48;69.56
51333;BME280;37417;48.118;11.734;2023-07-29T10:59:55;95071.94;;;26.88;68.50
51333;BME280;37417;48.118;11.734;2023-07-29T11:02:41;95055.88;;;26.35;73.91
51333;BME280;37417;48.118;11.734;2023-07-29T11:05:42;95050.22;;;25.64;77.33
51333;BME280;37417;48.118;11.734;2023-07-29T11:08:29;95047.25;;;25.79;78.09
51333;BME280;37417;48.118;11.734;2023-07-29T11:11:15;95053.72;;;25.51;83.64
51333;BME280;37417;48.118;11.734;2023-07-29T11:14:01;95054.78;;;25.63;83.91
51333;BME280;37417;48.118;11.734;2023-07-29T11:16:47;95033.66;;;26.48;78.74
51333;BME280;37417;48.118;11.734;2023-07-29T11:19:34;95061.09;;;27.82;66.62
51333;BME280;37417;48.118;11.734;2023-07-29T11:22:21;95054.34;;;27.27;67.04
51333;BME280;37417;48.118;11.734;2023-07-29T11:25:08;95041.38;;;27.69;65.97
51333;BME280;37417;48.118;11.734;2023-07-29T11:27:56;95043.59;;;28.01;65.52
51333;BME280;37417;48.118;11.734;2023-07-29T11:30:42;95062.56;;;26.68;73.02
51333;BME280;37417;48.118;11.734;2023-07-29T11:33:28;95052.66;;;25.38;76.79
51333;BME280;37417;48.118;11.734;2023-07-29T11:36:17;95061.34;;;25.93;74.55
51333;BME280;37417;48.118;11.734;2023-07-29T11:39:09;95058.88;;;25.06;83.86
51333;BME280;37417;48.118;11.734;2023-07-29T11:41:55;95056.00;;;24.56;89.11
51333;BME280;37417;48.118;11.734;2023-07-29T11:44:41;95079.38;;;24.26;87.02
51333;BME280;37417;48.118;11.734;2023-07-29T11:47:27;95092.28;;;23.82;91.39
51333;BME280;37417;48.118;11.734;2023-07-29T11:50:14;95076.47;;;27.10;79.36
51333;BME280;37417;48.118;11.734;2023-07-29T11:53:09;95062.03;;;29.19;56.76
51333;BME280;37417;48.118;11.734;2023-07-29T11:55:57;95061.47;;;29.73;57.63
51333;BME280;37417;48.118;11.734;2023-07-29T11:58:43;95073.47;;;28.90;55.04
51333;BME280;37417;48.118;11.734;2023-07-29T12:01:33;95064.59;;;29.75;53.09
51333;BME280;37417;48.118;11.734;2023-07-29T12:04:23;95056.53;;;31.16;52.00
51333;BME280;37417;48.118;11.734;2023-07-29T12:07:09;95058.69;;;32.36;48.39
51333;BME280;37417;48.118;11.734;2023-07-29T12:09:55;95057.28;;;31.49;49.96
51333;BME280;37417;48.118;11.734;2023-07-29T12:12:46;95040.47;;;30.95;51.53
51333;BME280;37417;48.118;11.734;2023-07-29T12:15:32;95034.25;;;33.20;47.61
51333;BME280;37417;48.118;11.734;2023-07-29T12:18:17;95036.63;;;30.84;50.49
51333;BME280;37417;48.118;11.734;2023-07-29T12:21:04;95024.75;;;31.95;44.95
51333;BME280;37417;48.118;11.734;2023-07-29T12:23:50;95030.75;;;34.41;43.81
51333;BME280;37417;48.118;11.734;2023-07-29T12:26:40;95016.81;;;35.53;42.98
51333;BME280;37417;48.118;11.734;2023-07-29T12:29:27;95015.81;;;37.37;37.87
51333;BME280;37417;48.118;11.734;2023-07-29T12:32:15;94999.84;;;36.87;36.03
51333;BME280;37417;48.118;11.734;2023-07-29T12:35:03;95018.72;;;31.12;44.81
51333;BME280;37417;48.118;11.734;2023-07-29T12:38:02;95012.69;;;32.60;43.71
51333;BME280;37417;48.118;11.734;2023-07-29T12:40:51;95024.19;;;32.73;44.57
51333;BME280;37417;48.118;11.734;2023-07-29T12:43:36;95012.47;;;31.33;46.48
51333;BME280;37417;48.118;11.734;2023-07-29T12:46:32;95013.03;;;31.26;44.59
51333;BME280;37417;48.118;11.734;2023-07-29T12:49:18;95014.38;;;29.87;52.90
51333;BME280;37417;48.118;11.734;2023-07-29T12:52:06;95014.97;;;30.14;52.34
51333;BME280;37417;48.118;11.734;2023-07-29T12:54:58;95008.75;;;29.59;51.70
51333;BME280;37417;48.118;11.734;2023-07-29T12:57:44;94997.84;;;29.56;52.78
51333;BME280;37417;48.118;11.734;2023-07-29T13:00:30;94995.31;;;28.36;57.86
51333;BME280;37417;48.118;11.734;2023-07-29T13:03:16;95006.03;;;27.67;60.25
51333;BME280;37417;48.118;11.734;2023-07-29T13:06:04;95047.06;;;25.76;78.00
51333;BME280;37417;48.118;11.734;2023-07-29T13:08:50;95071.53;;;22.59;100.00
51333;BME280;37417;48.118;11.734;2023-07-29T13:11:36;95078.56;;;19.16;100.00
51333;BME280;37417;48.118;11.734;2023-07-29T13:14:22;95107.22;;;17.91;100.00
51333;BME280;37417;48.118;11.734;2023-07-29T13:17:08;95158.94;;;18.19;100.00
51333;BME280;37417;48.118;11.734;2023-07-29T13:19:53;95191.50;;;18.03;100.00
51333;BME280;37417;48.118;11.734;2023-07-29T13:22:39;95200.41;;;17.97;100.00
51333;BME280;37417;48.118;11.734;2023-07-29T13:25:25;95225.53;;;17.77;100.00
51333;BME280;37417;48.118;11.734;2023-07-29T13:28:11;95255.78;;;17.92;100.00
51333;BME280;37417;48.118;11.734;2023-07-29T13:31:06;95255.00;;;18.40;100.00
51333;BME280;37417;48.118;11.734;2023-07-29T13:33:55;95256.66;;;19.05;100.00
51333;BME280;37417;48.118;11.734;2023-07-29T13:36:41;95258.97;;;19.29;100.00
51333;BME280;37417;48.118;11.734;2023-07-29T13:39:26;95252.16;;;19.43;100.00
51333;BME280;37417;48.118;11.734;2023-07-29T13:42:13;95257.88;;;19.62;100.00
51333;BME280;37417;48.118;11.734;2023-07-29T13:44:58;95268.66;;;19.97;100.00
51333;BME280;37417;48.118;11.734;2023-07-29T13:47:44;95277.38;;;19.98;100.00
51333;BME280;37417;48.118;11.734;2023-07-29T13:50:30;95279.78;;;20.05;100.00
51333;BME280;37417;48.118;11.734;2023-07-29T13:53:16;95268.75;;;20.33;100.00
51333;BME280;37417;48.118;11.734;2023-07-29T13:56:03;95255.28;;;19.72;100.00
51333;BME280;37417;48.118;11.734;2023-07-29T13:58:49;95263.19;;;20.29;100.00
51333;BME280;37417;48.118;11.734;2023-07-29T14:01:35;95257.59;;;20.21;100.00
51333;BME280;37417;48.118;11.734;2023-07-29T14:04:21;95259.59;;;20.56;100.00
51333;BME280;37417;48.118;11.734;2023-07-29T14:07:08;95248.22;;;20.76;100.00
51333;BME280;37417;48.118;11.734;2023-07-29T14:09:53;95250.88;;;20.81;100.00
51333;BME280;37417;48.118;11.734;2023-07-29T14:12:39;95249.81;;;20.87;100.00
51333;BME280;37417;48.118;11.734;2023-07-29T14:15:25;95247.44;;;21.06;100.00
51333;BME280;37417;48.118;11.734;2023-07-29T14:18:11;95240.25;;;20.91;100.00
51333;BME280;37417;48.118;11.734;2023-07-29T14:20:58;95245.03;;;20.89;100.00
51333;BME280;37417;48.118;11.734;2023-07-29T14:23:44;95241.84;;;20.72;100.00
51333;BME280;37417;48.118;11.734;2023-07-29T14:26:30;95250.31;;;20.99;100.00
51333;BME280;37417;48.118;11.734;2023-07-29T14:29:16;95233.81;;;20.36;100.00